Startpagina
METAR-TAF:

METAR-TAF

Vliegvelden :

Puerto Francisco de Orellana, Ecuador

breedte: 00-27-46S, lengte: 076-59-12W, hoogte: 254 m

Actueel weer

Dit bericht is 43 minuten geleden gemaakt, om 22:00 UTC
Wind 4 kt uit het westen
Temperatuur 29°C
Vochtigheid 66%
Druk 1010 hPa
Zicht 10 km of meer
Weinig wolken op 2600 ft

METAR: SECO 222200Z 26004KT 9999 FEW026 29/22 Q1010 RMK A2985

Tijdstip: 17:43 (22:43 UTC)


TAF: ontbreekt

Waarnemingen en weersverwachtingen van meer dan 4000 vliegvelden (METAR en TAF).

De beschikbare stations zijn de gele en rode punten op de kaart.

Ga met uw muis naar het station om de naam te zien.

Klik dan om waarnemingen en weersverwachtingen te zien.

kaart wijzigen: klik op de groene knoppen met een zwart kruis om in te zoomen, op de groene knop met een streepje om uit te zoomen of op de groene pijlen voor aangrenzende kaarten.


METAR-TAF: